Flight Track Log - Related Links

Times and Time Zones

All times are in EDT time to prevent confusion due to time zone crossing. See the AAL1326 flight status page for this flight to view local times or setup timezone preferences in your user account.

Time Position Orientation Groundspeed Altitude Reporting Facility
EDT Latitude Longitude Course Direction KTS MPH feet Rate Location/Type
Sun 04:35:13 PM 39.2270 -94.7300 193° South 164 189 4,600  Level FlightAware ADS-B
Sun 04:35:43 PM 39.2090 -94.7100 139° Southeast 194 223 5,200 1,029 Climbing FlightAware ADS-B
Sun 04:35:48 PM 39.2090 -94.7070 90° East 214 246 5,200 1,029 Level FlightAware ADS-B
Sun 04:36:18 PM 39.2220 -94.6660 68° East 265 305 5,800 1,800 Climbing FlightAware ADS-B
Sun 04:36:38 PM 39.2460 -94.6420 38° Northeast 292 336 6,700 2,933 Climbing FlightAware ADS-B
Sun 04:37:03 PM 39.2700 -94.6190 37° Northeast 288 331 8,000 3,055 Climbing FlightAware ADS-B
Sun 04:37:33 PM 39.3060 -94.5830 38° Northeast 302 348 9,500 2,400 Climbing FlightAware ADS-B
Sun 04:38:13 PM 39.3530 -94.5370 37° Northeast 342 394 10,800 2,118 Climbing FlightAware ADS-B
Sun 04:38:58 PM 39.4100 -94.4790 38° Northeast 368 423 12,500 2,400 Climbing FlightAware ADS-B
Sun 04:39:38 PM 39.4610 -94.4210 41° Northeast 384 442 14,200 2,682 Climbing FlightAware ADS-B
Sun 04:40:23 PM 39.5240 -94.3490 41° Northeast 402 463 16,300 2,824 Climbing FlightAware ADS-B
Sun 04:41:03 PM 39.5820 -94.2820 42° Northeast 413 475 18,200 2,625 Climbing FlightAware ADS-B
Sun 04:41:43 PM 39.6390 -94.2140 43° Northeast 428 493 19,800 2,188 Climbing FlightAware ADS-B
Sun 04:42:28 PM 39.7010 -94.1400 43° Northeast 447 514 21,300 1,906 Climbing FlightAware ADS-B
Sun 04:43:08 PM 39.7550 -94.0480 53° Northeast 475 547 22,500 2,188 Climbing FlightAware ADS-B
Sun 04:43:53 PM 39.7960 -93.9280 66° East 479 551 24,400 1,906 Climbing FlightAware ADS-B
Sun 04:44:33 PM 39.8330 -93.8190 66° East 500 575 25,200 1,875 Climbing FlightAware ADS-B
Sun 04:45:13 PM 39.8680 -93.7080 68° East 495 570 26,900 2,329 Climbing FlightAware ADS-B
Sun 04:45:58 PM 39.9030 -93.5950 68° East 493 567 28,500 2,047 Climbing FlightAware ADS-B
Sun 04:46:38 PM 39.9400 -93.4780 68° East 496 571 29,800 1,976 Climbing FlightAware ADS-B
Sun 04:47:23 PM 39.9780 -93.3500 69° East 496 571 31,300 1,765 Climbing FlightAware ADS-B
Sun 04:48:03 PM 40.0120 -93.2390 68° East 502 578 32,300 1,059 Climbing FlightAware ADS-B
Sun 04:48:48 PM 40.0490 -93.1160 69° East 501 577 32,800 494 Climbing FlightAware ADS-B
Sun 04:49:28 PM 40.0840 -93.0020 68° East 498 573 33,000 150 Climbing FlightAware ADS-B
Sun 04:50:08 PM 40.1160 -92.8990 68° East 497 572 33,000  Level FlightAware ADS-B
Sun 04:50:53 PM 40.1570 -92.7620 69° East 498 573 33,000  Level FlightAware ADS-B
Sun 04:51:33 PM 40.1890 -92.6550 69° East 498 573 33,000  Level FlightAware ADS-B
Sun 04:52:43 PM 40.2490 -92.4530 69° East 500 575 33,000  Level FlightAware ADS-B
Sun 04:53:23 PM 40.2800 -92.3480 69° East 500 575 33,000  Level FlightAware ADS-B
Sun 04:54:08 PM 40.3170 -92.2220 69° East 501 577 33,000  Level FlightAware ADS-B
Sun 04:54:48 PM 40.3500 -92.1110 69° East 501 577 33,000  Level FlightAware ADS-B
Sun 04:55:33 PM 40.3880 -91.9790 69° East 500 575 33,000  Level FlightAware ADS-B
Sun 04:56:13 PM 40.4200 -91.8700 69° East 500 575 33,000  Level FlightAware ADS-B
Sun 04:56:53 PM 40.4550 -91.7490 69° East 494 568 33,000  Level FlightAware ADS-B
Sun 04:57:53 PM 40.4990 -91.5970 69° East 493 567 33,000  Level FlightAware ADS-B
Sun 04:58:28 PM 40.5280 -91.4940 70° East 492 566 33,000  Level FlightAware ADS-B
Sun 04:59:13 PM 40.5670 -91.3650 68° East 490 564 33,000  Level FlightAware ADS-B
Sun 05:00:18 PM 40.6270 -91.1920 65° Northeast 490 564 33,000  Level FlightAware ADS-B
Sun 05:01:08 PM 40.6740 -91.0520 66° East 488 562 33,000  Level FlightAware ADS-B
Sun 05:01:43 PM 40.7030 -90.9690 65° Northeast 488 562 33,000  Level FlightAware ADS-B
Sun 05:02:38 PM 40.7570 -90.8060 66° East 489 563 33,000  Level FlightAware ADS-B
Sun 05:03:18 PM 40.7940 -90.6960 66° East 490 564 33,000  Level FlightAware ADS-B
Sun 05:04:03 PM 40.8340 -90.5780 66° East 492 566 33,000  Level FlightAware ADS-B
Sun 05:04:43 PM 40.8720 -90.4650 66° East 511 588 33,000  Level FlightAware ADS-B
Sun 05:05:23 PM 40.9110 -90.3490 66° East 514 592 33,000  Level FlightAware ADS-B
Sun 05:06:08 PM 40.9530 -90.2210 66° East 514 592 33,000 -71 Level FlightAware ADS-B
Sun 05:06:48 PM 40.9910 -90.1060 66° East 513 590 32,900 -1,520 Descending FlightAware ADS-B
Sun 05:07:23 PM 41.0240 -90.0050 67° East 516 594 31,100 -3,176 Descending FlightAware ADS-B
Sun 05:08:13 PM 41.0700 -89.8630 67° East 516 594 28,400 -3,333 Descending FlightAware ADS-B
Sun 05:08:53 PM 41.1110 -89.7380 66° East 509 586 26,100 -2,400 Descending FlightAware ADS-B
Sun 05:09:38 PM 41.1470 -89.6260 67° East 478 550 25,000 -2,118 Descending FlightAware ADS-B
Sun 05:10:18 PM 41.1900 -89.5130 63° Northeast 463 533 23,100 -2,775 Descending FlightAware ADS-B
Sun 05:10:58 PM 41.2270 -89.4200 62° Northeast 449 517 21,300 -2,682 Descending FlightAware ADS-B
Sun 05:11:43 PM 41.2730 -89.3090 61° Northeast 432 497 19,300 -2,471 Descending FlightAware ADS-B
Sun 05:12:23 PM 41.3100 -89.2150 62° Northeast 422 486 17,800 -2,259 Descending FlightAware ADS-B
Sun 05:13:08 PM 41.3500 -89.1150 62° Northeast 413 475 16,100 -2,259 Descending FlightAware ADS-B
Sun 05:13:48 PM 41.3850 -89.0270 62° Northeast 405 466 14,600 -2,175 Descending FlightAware ADS-B
Sun 05:14:28 PM 41.4200 -88.9400 62° Northeast 393 452 13,200 -2,047 Descending FlightAware ADS-B
Sun 05:15:13 PM 41.4570 -88.8480 62° Northeast 381 438 11,700 -1,624 Descending FlightAware ADS-B
Sun 05:15:53 PM 41.4900 -88.7630 63° Northeast 349 402 10,900 -494 Descending FlightAware ADS-B
Sun 05:16:38 PM 41.5200 -88.6880 62° Northeast 286 329 11,000 71 Climbing FlightAware ADS-B
Sun 05:17:18 PM 41.5440 -88.6280 62° Northeast 271 312 11,000  Level FlightAware ADS-B
Sun 05:17:58 PM 41.5670 -88.5690 62° Northeast 270 311 11,000 -514 Level FlightAware ADS-B
Sun 05:18:28 PM 41.5830 -88.5230 65° Northeast 271 312 10,400 -1,400 Descending FlightAware ADS-B
Sun 05:18:58 PM 41.5880 -88.4730 82° East 272 313 9,600 -1,527 Descending FlightAware ADS-B
Sun 05:19:23 PM 41.5930 -88.4330 80° East 269 310 9,000 -1,350 Descending FlightAware ADS-B
Sun 05:19:38 PM 41.5970 -88.4070 78° East 267 307 8,700 -1,200 Descending FlightAware ADS-B
Sun 05:20:08 PM 41.6030 -88.3590 80° East 261 300 8,100 -764 Descending FlightAware ADS-B
Sun 05:20:33 PM 41.6090 -88.3190 79° East 257 296 8,000 -150 Descending FlightAware ADS-B
Sun 05:20:48 PM 41.6170 -88.3010 59° Northeast 252 290 8,000  Level FlightAware ADS-B
Sun 05:21:18 PM 41.6410 -88.2660 47° Northeast 250 288 8,000  Level FlightAware ADS-B
Sun 05:21:43 PM 41.6630 -88.2390 43° Northeast 248 285 8,000  Level FlightAware ADS-B
Sun 05:22:13 PM 41.6900 -88.2100 39° Northeast 248 285 8,000 -900 Level FlightAware ADS-B
Sun 05:22:43 PM 41.7150 -88.1810 41° Northeast 262 302 7,100 -1,745 Descending FlightAware ADS-B
Sun 05:23:08 PM 41.7380 -88.1540 41° Northeast 255 293 6,400 -1,418 Descending FlightAware ADS-B
Sun 05:23:38 PM 41.7640 -88.1220 43° Northeast 244 281 5,800 -1,333 Descending FlightAware ADS-B
Sun 05:23:53 PM 41.7770 -88.1070 41° Northeast 240 276 5,400 -1,500 Descending FlightAware ADS-B
Sun 05:24:18 PM 41.7960 -88.0850 41° Northeast 238 274 4,800 -1,500 Descending FlightAware ADS-B
Sun 05:24:33 PM 41.8110 -88.0680 40° Northeast 237 273 4,400 -1,333 Descending FlightAware ADS-B
Sun 05:25:03 PM 41.8350 -88.0400 41° Northeast 228 262 3,800 -1,200 Descending FlightAware ADS-B
Sun 05:25:28 PM 41.8540 -88.0170 42° Northeast 227 261 3,300 -1,200 Descending FlightAware ADS-B
Sun 05:25:58 PM 41.8770 -87.9900 41° Northeast 219 252 2,700 -1,200 Descending FlightAware ADS-B
Sun 05:26:23 PM 41.8950 -87.9680 42° Northeast 202 232 2,200 -1,091 Descending FlightAware ADS-B
Sun 05:26:53 PM 41.9150 -87.9450 41° Northeast 172 198 1,700 -900 Descending FlightAware ADS-B
Sun 05:27:23 PM 41.9310 -87.9260 41° Northeast 149 171 1,300 -873 Descending FlightAware ADS-B
Sun 05:27:48 PM 41.9440 -87.9110 41° Northeast 139 160 900 -840 Descending FlightAware ADS-B
Sun 05:28:13 PM 41.9550 -87.8980 41° Northeast 140 161 600 -720 Descending FlightAware ADS-B

Login

Don't have an account? Register now (free) for customized features, flight alerts, and more!